createdAt,value
2018-06-18T00:01:58.036Z,90.58
2018-06-18T00:04:25.041Z,91.87
2018-06-18T00:06:52.054Z,92.72
2018-06-18T00:09:19.060Z,93.71
2018-06-18T00:11:46.877Z,91.98
2018-06-18T00:14:13.899Z,92.63
2018-06-18T00:16:40.925Z,92.32
2018-06-18T00:19:08.019Z,93.51
2018-06-18T00:21:35.041Z,93.20
2018-06-18T00:24:02.269Z,91.98
2018-06-18T00:26:29.273Z,90.46
2018-06-18T00:28:56.339Z,91.32
2018-06-18T00:31:23.351Z,92.47
2018-06-18T00:33:50.518Z,92.48
2018-06-18T00:36:17.798Z,93.49
2018-06-18T00:38:44.811Z,93.79
2018-06-18T00:41:11.832Z,93.23
2018-06-18T00:43:38.849Z,93.29
2018-06-18T00:46:05.858Z,92.90
2018-06-18T00:48:32.872Z,93.62
2018-06-18T00:50:59.966Z,93.63
2018-06-18T00:53:26.981Z,92.99
2018-06-18T00:56:06.373Z,93.50
2018-06-18T00:58:33.382Z,93.62
2018-06-18T01:01:00.462Z,94.15
2018-06-18T01:03:27.492Z,94.39
2018-06-18T01:05:54.556Z,94.55
2018-06-18T01:08:21.589Z,95.17
2018-06-18T01:10:48.603Z,94.82
2018-06-18T01:13:15.594Z,94.87
2018-06-18T01:15:42.613Z,94.35
2018-06-18T01:18:09.701Z,94.61
2018-06-18T01:20:36.706Z,94.54
2018-06-18T01:23:25.390Z,95.05
2018-06-18T01:25:52.392Z,94.15
2018-06-18T01:28:19.401Z,94.40
2018-06-18T01:30:46.445Z,94.62
2018-06-18T01:33:13.442Z,95.14
2018-06-18T01:35:40.482Z,95.04
2018-06-18T01:38:07.481Z,95.25
2018-06-18T01:40:34.481Z,95.13
2018-06-18T01:43:01.772Z,95.06
2018-06-18T01:45:28.783Z,94.83
2018-06-18T01:47:55.798Z,95.39
2018-06-18T01:50:22.837Z,95.40
2018-06-18T01:52:49.869Z,95.36
2018-06-18T01:55:16.880Z,94.92
2018-06-18T01:57:51.724Z,94.75
2018-06-18T02:00:18.921Z,95.18
2018-06-18T02:02:46.061Z,95.53
2018-06-18T02:05:13.089Z,95.99
2018-06-18T02:07:40.114Z,95.34
2018-06-18T02:10:07.225Z,95.00
2018-06-18T02:12:34.241Z,95.14
2018-06-18T02:15:01.254Z,95.23
2018-06-18T02:17:28.285Z,94.71
2018-06-18T02:19:55.289Z,94.62
2018-06-18T02:22:22.306Z,94.52
2018-06-18T02:24:49.424Z,94.82
2018-06-18T02:27:17.529Z,94.59
2018-06-18T02:29:51.229Z,94.89
2018-06-18T02:32:23.926Z,94.40
2018-06-18T02:34:56.954Z,94.08
2018-06-18T02:37:29.542Z,94.67
2018-06-18T02:40:02.237Z,94.68
2018-06-18T02:42:29.260Z,94.22
2018-06-18T02:44:56.336Z,94.88
2018-06-18T02:47:23.344Z,94.84
2018-06-18T02:49:50.339Z,95.31
2018-06-18T02:52:17.369Z,94.60
2018-06-18T02:54:44.467Z,95.30
2018-06-18T02:57:12.481Z,94.79
2018-06-18T02:59:39.477Z,94.31
2018-06-18T03:02:06.586Z,94.73
2018-06-18T03:04:33.658Z,94.75
2018-06-18T03:07:00.657Z,93.77
2018-06-18T03:09:27.674Z,93.47
2018-06-18T03:11:54.713Z,93.53
2018-06-18T03:14:21.745Z,93.46
2018-06-18T03:16:48.773Z,93.25
2018-06-18T03:19:21.413Z,92.95
2018-06-18T03:21:54.202Z,92.98
2018-06-18T03:24:26.886Z,92.86
2018-06-18T03:26:59.502Z,93.20
2018-06-18T03:29:29.646Z,92.82
2018-06-18T03:31:58.273Z,92.82
2018-06-18T03:34:25.278Z,92.51
2018-06-18T03:36:52.888Z,93.12
2018-06-18T03:39:19.919Z,92.70
2018-06-18T03:41:48.650Z,92.81
2018-06-18T03:44:23.585Z,92.86
2018-06-18T03:46:50.926Z,92.24
2018-06-18T03:49:17.929Z,92.01
2018-06-18T03:51:46.894Z,92.24
2018-06-18T03:54:16.736Z,92.61
2018-06-18T03:56:43.739Z,92.31
2018-06-18T03:59:10.969Z,92.17
2018-06-18T04:01:50.985Z,92.07
2018-06-18T04:04:25.891Z,91.77
2018-06-18T04:06:58.745Z,91.87
2018-06-18T04:09:31.905Z,91.66
2018-06-18T04:12:05.104Z,90.96
2018-06-18T04:14:32.229Z,92.33
2018-06-18T04:17:00.673Z,91.66
2018-06-18T04:19:27.917Z,92.04
2018-06-18T04:21:54.877Z,91.44
2018-06-18T04:24:22.193Z,91.34
2018-06-18T04:26:49.282Z,91.77
2018-06-18T04:29:16.329Z,91.85
2018-06-18T04:31:43.637Z,92.01
2018-06-18T04:34:48.861Z,91.18
2018-06-18T04:37:15.883Z,91.48
2018-06-18T04:39:42.913Z,90.87
2018-06-18T04:42:15.881Z,91.34
2018-06-18T04:44:48.610Z,90.60
2018-06-18T04:47:21.213Z,90.32
2018-06-18T04:49:54.071Z,91.55
2018-06-18T04:52:21.167Z,90.63
2018-06-18T04:54:48.289Z,90.50
2018-06-18T04:57:15.317Z,91.05
2018-06-18T04:59:45.576Z,90.71
2018-06-18T05:02:12.583Z,90.68
2018-06-18T05:04:39.677Z,90.22
2018-06-18T05:07:06.867Z,90.47
2018-06-18T05:10:06.826Z,89.57
2018-06-18T05:12:33.866Z,89.62
2018-06-18T05:15:01.243Z,88.72
2018-06-18T05:17:28.501Z,89.07
2018-06-18T05:19:55.521Z,88.36
2018-06-18T05:22:22.590Z,88.07
2018-06-18T05:24:51.486Z,87.58
2018-06-18T05:27:20.365Z,87.74
2018-06-18T05:29:47.432Z,87.28
2018-06-18T05:32:14.442Z,86.28
2018-06-18T05:34:41.437Z,86.17
2018-06-18T05:37:11.335Z,86.96
2018-06-18T05:39:38.349Z,85.71
2018-06-18T05:42:05.429Z,86.03
2018-06-18T05:44:32.459Z,85.88
2018-06-18T05:46:59.474Z,85.93
2018-06-18T05:49:26.536Z,85.81
2018-06-18T05:51:53.565Z,85.69
2018-06-18T05:54:20.595Z,85.00
2018-06-18T05:56:47.627Z,84.78
2018-06-18T05:59:14.709Z,84.18
2018-06-18T06:01:41.726Z,84.50
2018-06-18T06:04:08.759Z,84.29
2018-06-18T06:06:35.784Z,84.71
2018-06-18T06:09:04.783Z,83.91
2018-06-18T06:11:31.801Z,82.14
2018-06-18T06:13:58.925Z,82.27
2018-06-18T06:16:25.961Z,81.57
2018-06-18T06:18:53.197Z,81.06
2018-06-18T06:21:20.295Z,80.40
2018-06-18T06:23:47.310Z,79.83
2018-06-18T06:26:14.735Z,79.07
2018-06-18T06:28:41.815Z,79.08
2018-06-18T06:31:09.212Z,78.35
2018-06-18T06:33:36.313Z,78.43
2018-06-18T06:36:04.626Z,77.80
2018-06-18T06:38:31.680Z,77.69
2018-06-18T06:40:58.807Z,76.33
2018-06-18T06:43:25.997Z,75.81
2018-06-18T06:45:53.035Z,75.87
2018-06-18T06:48:20.092Z,77.12
2018-06-18T06:50:47.096Z,76.15
2018-06-18T06:53:14.173Z,75.11
2018-06-18T06:55:41.175Z,75.65
2018-06-18T06:58:08.199Z,75.68
2018-06-18T07:00:35.373Z,75.53
2018-06-18T07:03:02.389Z,73.89
2018-06-18T07:05:29.397Z,74.59
2018-06-18T07:07:56.457Z,73.15
2018-06-18T07:10:23.471Z,74.72
2018-06-18T07:12:50.709Z,74.13
2018-06-18T07:15:17.813Z,75.02
2018-06-18T07:17:44.918Z,74.71
2018-06-18T07:20:11.996Z,74.53
2018-06-18T07:22:39.026Z,74.33
2018-06-18T07:25:06.080Z,74.21
2018-06-18T07:27:33.221Z,74.79
2018-06-18T07:30:00.337Z,74.54
2018-06-18T07:32:27.363Z,75.00
2018-06-18T07:34:54.598Z,74.58
2018-06-18T07:37:21.675Z,74.64
2018-06-18T07:39:48.684Z,73.77
2018-06-18T07:42:15.756Z,73.29
2018-06-18T07:44:42.782Z,72.38
2018-06-18T07:47:09.875Z,71.77
2018-06-18T07:49:37.156Z,71.78
2018-06-18T07:52:04.305Z,72.53
2018-06-18T07:54:31.324Z,71.02
2018-06-18T07:56:58.492Z,69.70
2018-06-18T07:59:25.640Z,70.49
2018-06-18T08:01:52.642Z,69.42
2018-06-18T08:04:19.672Z,69.83
2018-06-18T08:06:46.726Z,69.66
2018-06-18T08:09:14.762Z,69.67
2018-06-18T08:11:42.473Z,69.81
2018-06-18T08:14:09.509Z,69.13
2018-06-18T08:16:36.518Z,69.76
2018-06-18T08:19:03.903Z,70.61
2018-06-18T08:21:31.074Z,70.36
2018-06-18T08:23:58.116Z,70.40
2018-06-18T08:26:25.229Z,71.34
2018-06-18T08:28:52.253Z,70.72
2018-06-18T08:31:19.284Z,70.22
2018-06-18T08:33:46.292Z,70.39
2018-06-18T08:36:13.326Z,70.09
2018-06-18T08:38:40.442Z,69.05
2018-06-18T08:41:07.477Z,68.76
2018-06-18T08:43:34.498Z,69.29
2018-06-18T08:46:01.556Z,69.71
2018-06-18T08:48:34.257Z,69.23
2018-06-18T08:51:07.062Z,69.60
2018-06-18T08:53:39.776Z,69.65
2018-06-18T08:56:12.630Z,69.37
2018-06-18T08:59:45.110Z,68.96
2018-06-18T09:02:12.183Z,67.82
2018-06-18T09:04:48.910Z,67.92
2018-06-18T09:07:15.980Z,68.62
2018-06-18T09:09:43.966Z,68.91
2018-06-18T09:12:11.022Z,68.91
2018-06-18T09:14:38.342Z,69.51
2018-06-18T09:17:05.374Z,69.64
2018-06-18T09:19:32.409Z,69.69
2018-06-18T09:21:59.467Z,69.19
2018-06-18T09:24:33.021Z,69.02
2018-06-18T09:27:05.896Z,68.36
2018-06-18T09:29:33.235Z,68.11
2018-06-18T09:32:00.387Z,67.65
2018-06-18T09:34:27.641Z,69.34
2018-06-18T09:36:55.257Z,68.62
2018-06-18T09:39:22.539Z,69.01
2018-06-18T09:41:49.750Z,69.06
2018-06-18T09:44:16.792Z,69.63
2018-06-18T09:46:45.235Z,70.94
2018-06-18T09:49:17.957Z,71.35
2018-06-18T09:51:51.517Z,71.73
2018-06-18T09:54:24.374Z,70.80
2018-06-18T09:56:57.042Z,70.72
2018-06-18T09:59:39.699Z,70.91
2018-06-18T10:02:07.874Z,70.32
2018-06-18T10:04:34.896Z,70.60
2018-06-18T10:07:01.927Z,71.04
2018-06-18T10:09:28.954Z,71.09
2018-06-18T10:11:55.983Z,70.26
2018-06-18T10:14:24.079Z,69.82
2018-06-18T10:16:51.053Z,69.99
2018-06-18T10:19:18.074Z,69.81
2018-06-18T10:21:45.125Z,69.23
2018-06-18T10:24:12.206Z,69.02
2018-06-18T10:26:39.221Z,69.42
2018-06-18T10:29:06.482Z,69.28
2018-06-18T10:31:33.517Z,69.60
2018-06-18T10:34:06.525Z,69.94
2018-06-18T10:36:39.239Z,71.00
2018-06-18T10:39:12.929Z,71.37
2018-06-18T10:41:45.629Z,71.33
2018-06-18T10:44:12.656Z,72.09
2018-06-18T10:46:39.681Z,71.54
2018-06-18T10:49:06.766Z,71.73
2018-06-18T10:51:33.792Z,71.06
2018-06-18T10:54:00.805Z,71.36
2018-06-18T10:56:27.873Z,71.83
2018-06-18T10:58:54.918Z,71.20
2018-06-18T11:01:27.522Z,72.15
2018-06-18T11:03:54.655Z,72.33
2018-06-18T11:06:27.294Z,71.91
2018-06-18T11:08:54.310Z,72.51
2018-06-18T11:11:21.356Z,72.73
2018-06-18T11:13:48.406Z,72.12
2018-06-18T11:16:15.587Z,73.81
2018-06-18T11:18:48.090Z,74.84
2018-06-18T11:21:21.056Z,76.84
2018-06-18T11:23:53.725Z,76.27
2018-06-18T11:26:26.615Z,76.44
2018-06-18T11:28:53.592Z,75.49
2018-06-18T11:31:20.640Z,75.57
2018-06-18T11:33:47.629Z,75.70
2018-06-18T11:36:14.682Z,75.20
2018-06-18T11:38:41.706Z,74.77
2018-06-18T11:41:08.716Z,74.45
2018-06-18T11:43:35.790Z,75.01
2018-06-18T11:46:02.814Z,75.65
2018-06-18T11:48:30.078Z,75.38
2018-06-18T11:50:57.109Z,75.68
2018-06-18T11:53:24.130Z,75.50
2018-06-18T11:55:51.210Z,74.96
2018-06-18T11:58:23.958Z,75.20
2018-06-18T12:00:56.879Z,74.20
2018-06-18T12:03:29.673Z,74.64
2018-06-18T12:06:02.402Z,74.65
2018-06-18T12:08:35.136Z,75.40
2018-06-18T12:11:02.282Z,75.20
2018-06-18T12:13:29.396Z,75.70
2018-06-18T12:15:56.497Z,75.67
2018-06-18T12:18:23.520Z,75.77
2018-06-18T12:20:50.565Z,76.37
2018-06-18T12:23:17.610Z,76.04
2018-06-18T12:25:44.746Z,76.44
2018-06-18T12:28:11.985Z,76.55
2018-06-18T12:30:39.150Z,76.63
2018-06-18T12:33:06.212Z,77.05
2018-06-18T12:35:33.224Z,75.87
2018-06-18T12:38:00.355Z,74.98
2018-06-18T12:40:27.472Z,75.88
2018-06-18T12:42:54.569Z,74.99
2018-06-18T12:45:27.687Z,75.31
2018-06-18T12:48:00.708Z,75.78
2018-06-18T12:50:33.526Z,76.49
2018-06-18T12:53:06.589Z,75.98
2018-06-18T12:55:39.334Z,76.29
2018-06-18T12:58:06.466Z,75.87
2018-06-18T13:00:33.498Z,76.22
2018-06-18T13:03:10.108Z,75.56
2018-06-18T13:05:37.133Z,75.50
2018-06-18T13:08:04.298Z,74.65
2018-06-18T13:10:31.454Z,73.80
2018-06-18T13:12:58.463Z,74.42
2018-06-18T13:15:25.500Z,74.44
2018-06-18T13:17:52.521Z,75.23
2018-06-18T13:20:19.900Z,76.07
2018-06-18T13:22:46.895Z,75.67
2018-06-18T13:25:14.097Z,75.84
2018-06-18T13:27:46.702Z,76.05
2018-06-18T13:30:14.108Z,76.87
2018-06-18T13:32:41.141Z,76.58
2018-06-18T13:35:08.517Z,77.77
2018-06-18T13:37:41.679Z,77.55
2018-06-18T13:40:14.456Z,77.97
2018-06-18T13:42:47.149Z,77.80
2018-06-18T13:45:19.931Z,77.09
2018-06-18T13:47:52.729Z,76.78
2018-06-18T13:50:19.761Z,74.76
2018-06-18T13:52:46.986Z,75.23
2018-06-18T13:55:14.374Z,74.91
2018-06-18T13:57:41.377Z,74.80
2018-06-18T14:00:08.784Z,75.30
2018-06-18T14:05:09.763Z,75.76
2018-06-18T14:07:36.778Z,76.67
2018-06-18T14:10:03.807Z,76.31
2018-06-18T14:12:31.045Z,76.44
2018-06-18T14:14:58.180Z,75.91
2018-06-18T14:17:25.193Z,75.92
2018-06-18T14:19:58.077Z,75.64
2018-06-18T14:22:25.101Z,75.58
2018-06-18T14:24:52.369Z,75.28
2018-06-18T14:27:19.414Z,75.41
2018-06-18T14:29:52.166Z,76.14
2018-06-18T14:32:24.794Z,76.32
2018-06-18T14:34:57.522Z,76.17
2018-06-18T14:37:30.285Z,74.81
2018-06-18T14:40:28.591Z,75.50
2018-06-18T14:42:55.665Z,75.57
2018-06-18T14:45:22.703Z,75.42
2018-06-18T14:47:49.716Z,75.65
2018-06-18T14:50:16.757Z,75.76
2018-06-18T14:52:43.879Z,75.53
2018-06-18T14:55:11.966Z,74.92
2018-06-18T14:57:39.007Z,75.15
2018-06-18T15:00:09.897Z,74.97
2018-06-18T15:02:36.953Z,75.07
2018-06-18T15:05:04.152Z,74.71
2018-06-18T15:07:31.306Z,74.01
2018-06-18T15:09:58.328Z,73.60
2018-06-18T15:12:26.721Z,74.00
2018-06-18T15:14:59.567Z,73.32
2018-06-18T15:17:26.739Z,73.06
2018-06-18T15:19:53.896Z,73.14
2018-06-18T15:22:22.605Z,73.15
2018-06-18T15:24:52.104Z,73.42
2018-06-18T15:27:19.674Z,73.52
2018-06-18T15:29:46.762Z,73.44
2018-06-18T15:32:13.799Z,75.48
2018-06-18T15:34:40.845Z,75.94
2018-06-18T15:37:07.865Z,75.08
2018-06-18T15:39:34.884Z,76.58
2018-06-18T15:42:01.917Z,75.32
2018-06-18T15:44:28.942Z,74.43
2018-06-18T15:46:55.964Z,74.37
2018-06-18T15:49:22.993Z,75.53
2018-06-18T15:51:49.998Z,74.12
2018-06-18T15:54:17.023Z,72.79
2018-06-18T15:56:44.128Z,71.55
2018-06-18T15:59:11.129Z,70.38
2018-06-18T16:01:38.185Z,70.80
2018-06-18T16:04:05.475Z,69.99
2018-06-18T16:06:32.532Z,70.39
2018-06-18T16:08:59.544Z,71.06
2018-06-18T16:11:26.659Z,71.08
2018-06-18T16:13:53.670Z,70.77
2018-06-18T16:16:20.765Z,71.10
2018-06-18T16:18:47.799Z,70.93
2018-06-18T16:21:14.802Z,71.23
2018-06-18T16:23:41.832Z,70.52
2018-06-18T16:26:08.947Z,69.75
2018-06-18T16:28:35.970Z,69.75
2018-06-18T16:31:03.032Z,69.39
2018-06-18T16:33:30.053Z,69.94
2018-06-18T16:35:57.053Z,70.33
2018-06-18T16:38:24.166Z,70.13
2018-06-18T16:40:51.280Z,70.95
2018-06-18T16:43:18.409Z,71.07
2018-06-18T16:45:45.433Z,70.96
2018-06-18T16:48:12.481Z,71.03
2018-06-18T16:50:39.483Z,71.50
2018-06-18T16:55:40.434Z,71.64
2018-06-18T16:58:07.542Z,71.94
2018-06-18T17:00:34.623Z,71.67
2018-06-18T17:03:01.604Z,71.25
2018-06-18T17:05:28.642Z,71.16
2018-06-18T17:07:55.669Z,71.59
2018-06-18T17:10:22.673Z,71.30
2018-06-18T17:12:49.958Z,70.71
2018-06-18T17:15:17.051Z,71.27
2018-06-18T17:17:44.077Z,71.57
2018-06-18T17:20:11.253Z,71.79
2018-06-18T17:22:38.276Z,71.65
2018-06-18T17:25:05.313Z,71.45
2018-06-18T17:27:32.348Z,72.53
2018-06-18T17:29:59.363Z,72.22
2018-06-18T17:32:26.382Z,72.52
2018-06-18T17:34:53.398Z,73.08
2018-06-18T17:37:20.420Z,72.61
2018-06-18T17:39:47.446Z,73.34
2018-06-18T17:42:14.472Z,73.49
2018-06-18T17:44:41.482Z,73.36
2018-06-18T17:49:42.554Z,73.35
2018-06-18T17:52:09.675Z,74.04
2018-06-18T17:54:36.786Z,74.30
2018-06-18T17:57:04.189Z,74.50
2018-06-18T17:59:31.188Z,74.69
2018-06-18T18:01:58.196Z,74.41
2018-06-18T18:04:25.204Z,74.57
2018-06-18T18:06:52.227Z,74.66
2018-06-18T18:09:19.248Z,74.85
2018-06-18T18:11:46.681Z,74.45
2018-06-18T18:14:13.699Z,74.55
2018-06-18T18:16:40.747Z,75.85
2018-06-18T18:19:07.796Z,78.03
2018-06-18T18:21:34.817Z,79.29
2018-06-18T18:24:01.864Z,80.45
2018-06-18T18:26:28.977Z,82.27
2018-06-18T18:28:55.983Z,85.67
2018-06-18T18:31:23.262Z,88.59
2018-06-18T18:33:50.619Z,91.03
2018-06-18T18:36:18.178Z,92.81
2018-06-18T18:38:45.341Z,94.28
2018-06-18T18:41:12.375Z,95.53
2018-06-18T18:43:39.403Z,96.50
2018-06-18T18:46:06.472Z,97.10
2018-06-18T18:48:33.702Z,97.71
2018-06-18T18:51:01.110Z,97.43
2018-06-18T18:53:28.292Z,98.40
2018-06-18T18:56:07.352Z,97.61
2018-06-18T18:59:44.654Z,97.90
2018-06-18T19:02:11.750Z,97.92
2018-06-18T19:04:56.161Z,99.07
2018-06-18T19:07:31.096Z,98.69
2018-06-18T19:10:05.370Z,99.11
2018-06-18T19:12:32.405Z,99.55
2018-06-18T19:14:59.428Z,100.00
2018-06-18T19:17:26.500Z,100.00
2018-06-18T19:19:59.213Z,100.00
2018-06-18T19:22:26.538Z,100.00
2018-06-18T19:24:53.632Z,100.00
2018-06-18T19:27:20.680Z,100.00
2018-06-18T19:29:47.714Z,100.00
2018-06-18T19:32:15.253Z,100.00
2018-06-18T19:34:42.317Z,100.00
2018-06-18T19:37:09.473Z,100.00
2018-06-18T19:39:39.909Z,100.00
2018-06-18T19:42:07.442Z,100.00
2018-06-18T19:44:34.822Z,100.00
2018-06-18T19:47:19.995Z,100.00
2018-06-18T19:49:47.078Z,100.00
2018-06-18T19:52:14.109Z,100.00
2018-06-18T19:54:46.451Z,100.00
2018-06-18T19:57:13.506Z,100.00
2018-06-18T19:59:40.591Z,100.00
2018-06-18T20:02:08.211Z,100.00
2018-06-18T20:04:35.256Z,100.00
2018-06-18T20:07:02.367Z,100.00
2018-06-18T20:09:29.431Z,100.00
2018-06-18T20:11:56.542Z,100.00
2018-06-18T20:14:23.593Z,100.00
2018-06-18T20:16:50.680Z,100.00
2018-06-18T20:19:19.507Z,100.00
2018-06-18T20:21:47.601Z,100.00
2018-06-18T20:24:14.675Z,100.00
2018-06-18T20:26:41.759Z,100.00
2018-06-18T20:29:09.169Z,100.00
2018-06-18T20:31:36.358Z,100.00
2018-06-18T20:34:03.493Z,100.00
2018-06-18T20:36:30.895Z,100.00
2018-06-18T20:38:57.975Z,100.00
2018-06-18T20:41:25.050Z,100.00
2018-06-18T20:43:57.105Z,100.00
2018-06-18T20:46:24.205Z,100.00
2018-06-18T20:48:51.253Z,100.00
2018-06-18T20:51:18.350Z,100.00
2018-06-18T20:53:45.381Z,100.00
2018-06-18T20:56:12.421Z,100.00
2018-06-18T20:58:39.493Z,100.00
2018-06-18T21:01:06.751Z,100.00
2018-06-18T21:03:33.872Z,99.86
2018-06-18T21:06:00.989Z,99.69
2018-06-18T21:08:28.089Z,99.11
2018-06-18T21:10:55.969Z,100.00
2018-06-18T21:13:23.037Z,100.00
2018-06-18T21:15:50.369Z,98.47
2018-06-18T21:18:17.721Z,99.50
2018-06-18T21:20:45.084Z,98.51
2018-06-18T21:23:12.126Z,98.17
2018-06-18T21:25:39.222Z,98.04
2018-06-18T21:28:07.263Z,98.14
2018-06-18T21:30:34.278Z,98.39
2018-06-18T21:33:02.010Z,98.34
2018-06-18T21:35:29.090Z,98.55
2018-06-18T21:37:56.145Z,98.18
2018-06-18T21:40:23.198Z,97.35
2018-06-18T21:42:50.298Z,97.51
2018-06-18T21:45:19.719Z,97.96
2018-06-18T21:47:47.557Z,98.05
2018-06-18T21:50:14.900Z,98.48
2018-06-18T21:52:42.046Z,98.67
2018-06-18T21:55:09.099Z,98.21
2018-06-18T21:57:36.388Z,99.08
2018-06-18T22:00:08.391Z,99.13
2018-06-18T22:02:35.422Z,99.33
2018-06-18T22:05:02.449Z,99.18
2018-06-18T22:07:29.974Z,99.79
2018-06-18T22:09:56.998Z,100.00
2018-06-18T22:12:24.093Z,100.00
2018-06-18T22:14:51.523Z,100.00
2018-06-18T22:17:18.564Z,100.00
2018-06-18T22:19:45.827Z,100.00
2018-06-18T22:22:12.885Z,100.00
2018-06-18T22:24:39.974Z,100.00
2018-06-18T22:27:07.242Z,100.00
2018-06-18T22:29:34.978Z,100.00
2018-06-18T22:32:02.048Z,100.00
2018-06-18T22:34:29.058Z,100.00
2018-06-18T22:36:56.316Z,100.00
2018-06-18T22:39:23.958Z,100.00
2018-06-18T22:41:51.425Z,99.50
2018-06-18T22:44:18.448Z,99.87
2018-06-18T22:46:45.586Z,99.28
2018-06-18T22:49:12.897Z,98.83
2018-06-18T22:51:40.000Z,98.01
2018-06-18T22:54:07.075Z,97.91
2018-06-18T22:56:34.391Z,97.42
2018-06-18T22:59:01.517Z,98.14
2018-06-18T23:01:28.820Z,97.20
2018-06-18T23:03:55.864Z,97.50
2018-06-18T23:06:23.056Z,96.96
2018-06-18T23:08:50.186Z,97.38
2018-06-18T23:11:17.244Z,97.80
2018-06-18T23:13:44.403Z,98.21
2018-06-18T23:16:11.434Z,97.72
2018-06-18T23:18:38.469Z,97.41
2018-06-18T23:21:05.503Z,98.33
2018-06-18T23:23:32.510Z,98.20
2018-06-18T23:26:06.441Z,98.69
2018-06-18T23:28:40.594Z,99.08
2018-06-18T23:31:07.646Z,98.74
2018-06-18T23:33:34.801Z,99.57
2018-06-18T23:36:01.889Z,99.29
2018-06-18T23:38:28.990Z,99.87
2018-06-18T23:40:56.010Z,100.00
2018-06-18T23:43:23.108Z,100.00
2018-06-18T23:45:50.165Z,99.86
2018-06-18T23:48:17.570Z,100.00
2018-06-18T23:50:44.621Z,100.00
2018-06-18T23:53:11.665Z,100.00
2018-06-18T23:55:38.688Z,100.00
2018-06-18T23:58:05.788Z,100.00
